SAA223 FAOR-FACT
Flight info
| Callsign | SAA223 |
|---|---|
| Flight time | 1h 49m |
| Altitude | 40000 |
| Route | RAGUL1D RAGUL UQ10 DUMDO UZ26 ERDAS ERDAS1B |
| Aircraft | A346/H-SDE2E3FGHIJ3J4J5M1RWXY/LB1D1 |
Departure
| Time | 2026-05-07 14:45 |
|---|---|
| Airport | O.R. Tambo International Airport (FAOR) |
Arrival
| Time | 2026-05-07 16:34 |
|---|---|
| Airport | Cape Town International Airport (FACT) |
| Time | Latitude | Longitude | Altitude | Speed | Heading |
|---|---|---|---|---|---|
| 2026-05-07 14:08 | -26.13165 | 28.23342 | 5555 ft | 0 kts | 276° |
| 2026-05-07 14:28 | -26.13165 | 28.23343 | 5558 ft | 2 kts | 276° |
| 2026-05-07 14:28 | -26.13168 | 28.23370 | 5555 ft | 3 kts | 277° |
| 2026-05-07 14:28 | -26.13171 | 28.23391 | 5555 ft | 4 kts | 293° |
| 2026-05-07 14:29 | -26.13180 | 28.23404 | 5555 ft | 4 kts | 335° |
| 2026-05-07 14:29 | -26.13197 | 28.23406 | 5558 ft | 4 kts | 6° |
| 2026-05-07 14:29 | -26.13223 | 28.23403 | 5558 ft | 4 kts | 6° |
| 2026-05-07 14:29 | -26.13232 | 28.23402 | 5555 ft | 0 kts | 6° |
| 2026-05-07 14:33 | -26.13231 | 28.23402 | 5555 ft | 1 kts | 6° |
| 2026-05-07 14:33 | -26.13221 | 28.23403 | 5557 ft | 2 kts | 6° |
| 2026-05-07 14:33 | -26.13197 | 28.23406 | 5555 ft | 5 kts | 7° |
| 2026-05-07 14:34 | -26.13181 | 28.23408 | 5555 ft | 0 kts | 7° |
| 2026-05-07 14:35 | -26.13176 | 28.23409 | 5558 ft | 2 kts | 6° |
| 2026-05-07 14:35 | -26.13157 | 28.23414 | 5557 ft | 4 kts | 20° |
| 2026-05-07 14:35 | -26.13131 | 28.23436 | 5557 ft | 6 kts | 53° |
| 2026-05-07 14:35 | -26.13120 | 28.23485 | 5558 ft | 8 kts | 88° |
| 2026-05-07 14:36 | -26.13120 | 28.23509 | 5558 ft | 3 kts | 93° |
| 2026-05-07 14:36 | -26.13123 | 28.23546 | 5558 ft | 6 kts | 95° |
| 2026-05-07 14:36 | -26.13128 | 28.23602 | 5555 ft | 6 kts | 96° |
| 2026-05-07 14:36 | -26.13133 | 28.23648 | 5557 ft | 4 kts | 97° |
| 2026-05-07 14:37 | -26.13134 | 28.23683 | 5553 ft | 5 kts | 78° |
| 2026-05-07 14:37 | -26.13050 | 28.23727 | 5553 ft | 9 kts | 14° |
| 2026-05-07 14:37 | -26.12979 | 28.23748 | 5552 ft | 12 kts | 15° |
| 2026-05-07 14:38 | -26.12896 | 28.23773 | 5554 ft | 13 kts | 15° |
| 2026-05-07 14:38 | -26.12805 | 28.23803 | 5556 ft | 14 kts | 16° |
| 2026-05-07 14:38 | -26.12711 | 28.23832 | 5556 ft | 15 kts | 15° |
| 2026-05-07 14:38 | -26.12603 | 28.23864 | 5551 ft | 18 kts | 15° |
| 2026-05-07 14:39 | -26.12488 | 28.23900 | 5551 ft | 17 kts | 15° |
| 2026-05-07 14:39 | -26.12368 | 28.23938 | 5549 ft | 19 kts | 15° |
| 2026-05-07 14:39 | -26.12274 | 28.23967 | 5548 ft | 15 kts | 15° |
| 2026-05-07 14:39 | -26.12161 | 28.24001 | 5543 ft | 18 kts | 15° |
| 2026-05-07 14:40 | -26.12034 | 28.24041 | 5545 ft | 17 kts | 15° |
| 2026-05-07 14:40 | -26.11906 | 28.24081 | 5540 ft | 21 kts | 18° |
| 2026-05-07 14:40 | -26.11762 | 28.24124 | 5534 ft | 19 kts | 15° |
| 2026-05-07 14:40 | -26.11630 | 28.24168 | 5534 ft | 21 kts | 16° |
| 2026-05-07 14:41 | -26.11484 | 28.24211 | 5533 ft | 23 kts | 14° |
| 2026-05-07 14:41 | -26.11355 | 28.24251 | 5532 ft | 16 kts | 15° |
| 2026-05-07 14:41 | -26.11249 | 28.24284 | 5529 ft | 15 kts | 15° |
| 2026-05-07 14:41 | -26.11142 | 28.24318 | 5525 ft | 12 kts | 15° |
| 2026-05-07 14:42 | -26.11052 | 28.24346 | 5523 ft | 14 kts | 15° |
| 2026-05-07 14:42 | -26.11002 | 28.24361 | 5522 ft | 8 kts | 15° |
| 2026-05-07 14:42 | -26.10957 | 28.24375 | 5522 ft | 7 kts | 22° |
| 2026-05-07 14:42 | -26.10911 | 28.24425 | 5519 ft | 12 kts | 57° |
| 2026-05-07 14:43 | -26.10873 | 28.24496 | 5517 ft | 4 kts | 60° |
| 2026-05-07 14:43 | -26.10855 | 28.24538 | 5516 ft | 7 kts | 75° |
| 2026-05-07 14:43 | -26.10876 | 28.24586 | 5516 ft | 8 kts | 154° |
| 2026-05-07 14:43 | -26.10918 | 28.24587 | 5517 ft | 4 kts | 194° |
| 2026-05-07 14:44 | -26.10941 | 28.24580 | 5518 ft | 3 kts | 195° |
| 2026-05-07 14:44 | -26.11124 | 28.24525 | 5527 ft | 64 kts | 195° |
| 2026-05-07 14:44 | -26.11797 | 28.24316 | 5545 ft | 137 kts | 195° |
| 2026-05-07 14:44 | -26.12926 | 28.23979 | 5642 ft | 189 kts | 197° |
| 2026-05-07 14:45 | -26.14243 | 28.23577 | 6459 ft | 202 kts | 198° |
| 2026-05-07 14:45 | -26.15601 | 28.23146 | 7472 ft | 198 kts | 199° |
| 2026-05-07 14:45 | -26.16873 | 28.22739 | 8297 ft | 189 kts | 182° |
| 2026-05-07 14:45 | -26.18199 | 28.22487 | 8902 ft | 197 kts | 193° |
| 2026-05-07 14:46 | -26.19571 | 28.22088 | 9390 ft | 211 kts | 201° |
| 2026-05-07 14:46 | -26.21021 | 28.21557 | 9837 ft | 229 kts | 203° |
| 2026-05-07 14:46 | -26.22602 | 28.20978 | 10233 ft | 249 kts | 202° |
| 2026-05-07 14:46 | -26.24335 | 28.20384 | 10687 ft | 268 kts | 201° |
| 2026-05-07 14:47 | -26.26175 | 28.19756 | 11174 ft | 285 kts | 206° |
| 2026-05-07 14:47 | -26.27889 | 28.18629 | 11565 ft | 298 kts | 225° |
| 2026-05-07 14:47 | -26.29222 | 28.16785 | 11903 ft | 315 kts | 244° |
| 2026-05-07 14:47 | -26.29886 | 28.14394 | 12263 ft | 333 kts | 264° |
| 2026-05-07 14:48 | -26.29835 | 28.11777 | 13039 ft | 339 kts | 272° |
| 2026-05-07 14:48 | -26.29726 | 28.09151 | 14063 ft | 339 kts | 272° |
| 2026-05-07 14:48 | -26.29621 | 28.06509 | 14859 ft | 342 kts | 272° |
| 2026-05-07 14:48 | -26.29504 | 28.03846 | 15673 ft | 344 kts | 272° |
| 2026-05-07 14:49 | -26.29380 | 28.01174 | 16499 ft | 346 kts | 272° |
| 2026-05-07 14:49 | -26.29253 | 27.98516 | 17291 ft | 349 kts | 272° |
| 2026-05-07 14:49 | -26.29221 | 27.95797 | 18070 ft | 352 kts | 266° |
| 2026-05-07 14:49 | -26.29610 | 27.93093 | 18838 ft | 355 kts | 257° |
| 2026-05-07 14:50 | -26.30419 | 27.90468 | 19520 ft | 361 kts | 249° |
| 2026-05-07 14:50 | -26.31509 | 27.87929 | 20161 ft | 366 kts | 247° |
| 2026-05-07 14:50 | -26.32647 | 27.85367 | 20788 ft | 370 kts | 247° |
| 2026-05-07 14:50 | -26.33800 | 27.82781 | 21449 ft | 374 kts | 247° |
| 2026-05-07 14:51 | -26.34963 | 27.80174 | 22114 ft | 378 kts | 247° |
| 2026-05-07 14:51 | -26.36139 | 27.77534 | 22812 ft | 381 kts | 247° |
| 2026-05-07 14:51 | -26.37306 | 27.74912 | 23458 ft | 385 kts | 247° |
| 2026-05-07 14:51 | -26.38504 | 27.72220 | 24036 ft | 389 kts | 247° |
| 2026-05-07 14:52 | -26.39711 | 27.69506 | 24592 ft | 392 kts | 248° |
| 2026-05-07 14:52 | -26.40925 | 27.66773 | 25159 ft | 394 kts | 248° |
| 2026-05-07 14:52 | -26.42144 | 27.64028 | 25736 ft | 396 kts | 248° |
| 2026-05-07 14:52 | -26.43413 | 27.61285 | 26311 ft | 400 kts | 245° |
| 2026-05-07 14:53 | -26.44925 | 27.58654 | 26913 ft | 405 kts | 240° |
| 2026-05-07 14:53 | -26.46693 | 27.56166 | 27466 ft | 412 kts | 235° |
| 2026-05-07 14:53 | -26.48670 | 27.53873 | 27997 ft | 419 kts | 231° |
| 2026-05-07 14:53 | -26.50772 | 27.51598 | 28478 ft | 423 kts | 231° |
| 2026-05-07 14:54 | -26.52909 | 27.49313 | 28976 ft | 427 kts | 231° |
| 2026-05-07 14:54 | -26.55062 | 27.47013 | 29487 ft | 430 kts | 231° |
| 2026-05-07 14:54 | -26.57235 | 27.44686 | 30007 ft | 432 kts | 231° |
| 2026-05-07 14:54 | -26.59414 | 27.42355 | 30469 ft | 435 kts | 231° |
| 2026-05-07 14:55 | -26.61604 | 27.40015 | 30928 ft | 436 kts | 231° |
| 2026-05-07 14:55 | -26.63790 | 27.37680 | 31522 ft | 433 kts | 231° |
| 2026-05-07 14:55 | -26.65979 | 27.35345 | 32145 ft | 431 kts | 231° |
| 2026-05-07 14:55 | -26.68117 | 27.33062 | 32714 ft | 430 kts | 231° |
| 2026-05-07 14:56 | -26.70274 | 27.30756 | 33287 ft | 428 kts | 232° |
| 2026-05-07 14:56 | -26.72425 | 27.28449 | 33813 ft | 427 kts | 232° |
| 2026-05-07 14:56 | -26.74566 | 27.26149 | 34364 ft | 426 kts | 232° |
| 2026-05-07 14:56 | -26.76707 | 27.23845 | 34790 ft | 426 kts | 232° |
| 2026-05-07 14:57 | -26.78841 | 27.21547 | 35208 ft | 426 kts | 232° |
| 2026-05-07 14:57 | -26.80980 | 27.19246 | 35628 ft | 425 kts | 232° |
| 2026-05-07 14:57 | -26.83111 | 27.16951 | 36058 ft | 425 kts | 232° |
| 2026-05-07 14:57 | -26.85208 | 27.14687 | 36445 ft | 424 kts | 232° |
| 2026-05-07 14:58 | -26.87334 | 27.12392 | 36829 ft | 423 kts | 232° |
| 2026-05-07 14:58 | -26.89453 | 27.10106 | 37194 ft | 423 kts | 232° |
| 2026-05-07 14:58 | -26.91574 | 27.07815 | 37546 ft | 423 kts | 232° |
| 2026-05-07 14:58 | -26.93690 | 27.05529 | 37891 ft | 422 kts | 232° |
| 2026-05-07 14:59 | -26.95804 | 27.03245 | 38203 ft | 422 kts | 232° |
| 2026-05-07 14:59 | -26.97908 | 27.00947 | 38503 ft | 422 kts | 232° |
| 2026-05-07 14:59 | -27.00001 | 26.98651 | 38741 ft | 423 kts | 232° |
| 2026-05-07 14:59 | -27.02107 | 26.96335 | 38922 ft | 424 kts | 232° |
| 2026-05-07 15:00 | -27.04185 | 26.94044 | 39079 ft | 425 kts | 232° |
| 2026-05-07 15:00 | -27.06297 | 26.91713 | 39256 ft | 426 kts | 232° |
| 2026-05-07 15:00 | -27.08417 | 26.89373 | 39461 ft | 427 kts | 232° |
| 2026-05-07 15:00 | -27.10540 | 26.87028 | 39606 ft | 429 kts | 232° |
| 2026-05-07 15:01 | -27.12673 | 26.84671 | 39761 ft | 431 kts | 232° |
| 2026-05-07 15:01 | -27.14814 | 26.82306 | 39922 ft | 431 kts | 232° |
| 2026-05-07 15:01 | -27.16955 | 26.79940 | 40069 ft | 432 kts | 232° |
| 2026-05-07 15:01 | -27.19104 | 26.77566 | 40105 ft | 433 kts | 232° |
| 2026-05-07 15:02 | -27.23376 | 26.72840 | 40111 ft | 434 kts | 232° |
| 2026-05-07 15:02 | -27.27677 | 26.68074 | 40114 ft | 434 kts | 232° |
| 2026-05-07 15:03 | -27.31977 | 26.63304 | 40117 ft | 434 kts | 232° |
| 2026-05-07 15:03 | -27.36271 | 26.58533 | 40117 ft | 434 kts | 232° |
| 2026-05-07 15:04 | -27.40563 | 26.53757 | 40126 ft | 434 kts | 232° |
| 2026-05-07 15:04 | -27.44826 | 26.49009 | 40125 ft | 434 kts | 232° |
| 2026-05-07 15:05 | -27.49125 | 26.44208 | 40114 ft | 435 kts | 232° |
| 2026-05-07 15:05 | -27.53425 | 26.39405 | 40112 ft | 435 kts | 232° |
| 2026-05-07 15:06 | -27.57725 | 26.34597 | 40113 ft | 435 kts | 232° |
| 2026-05-07 15:06 | -27.61993 | 26.29822 | 40112 ft | 435 kts | 232° |
| 2026-05-07 15:07 | -27.66289 | 26.25008 | 40123 ft | 435 kts | 232° |
| 2026-05-07 15:07 | -27.70577 | 26.20197 | 40113 ft | 434 kts | 232° |
| 2026-05-07 15:08 | -27.74867 | 26.15383 | 40109 ft | 434 kts | 232° |
| 2026-05-07 15:08 | -27.79121 | 26.10599 | 40129 ft | 435 kts | 232° |
| 2026-05-07 15:09 | -27.83418 | 26.05762 | 40111 ft | 436 kts | 232° |
| 2026-05-07 15:09 | -27.87714 | 26.00921 | 40117 ft | 436 kts | 232° |
| 2026-05-07 15:10 | -27.92012 | 25.96070 | 40110 ft | 436 kts | 232° |
| 2026-05-07 15:10 | -27.96296 | 25.91221 | 40115 ft | 436 kts | 231° |
| 2026-05-07 15:11 | -28.00556 | 25.86404 | 40114 ft | 436 kts | 231° |
| 2026-05-07 15:11 | -28.04848 | 25.81556 | 40114 ft | 436 kts | 231° |
| 2026-05-07 15:12 | -28.09139 | 25.76700 | 40113 ft | 436 kts | 231° |
| 2026-05-07 15:12 | -28.13423 | 25.71839 | 40152 ft | 436 kts | 231° |
| 2026-05-07 15:13 | -28.17687 | 25.66992 | 40126 ft | 437 kts | 231° |
| 2026-05-07 15:13 | -28.21987 | 25.62098 | 40130 ft | 437 kts | 231° |
| 2026-05-07 15:14 | -28.26276 | 25.57212 | 40123 ft | 437 kts | 231° |
| 2026-05-07 15:14 | -28.30534 | 25.52357 | 40119 ft | 437 kts | 231° |
| 2026-05-07 15:15 | -28.34819 | 25.47463 | 40120 ft | 436 kts | 231° |
| 2026-05-07 15:15 | -28.39098 | 25.42569 | 40125 ft | 436 kts | 231° |
| 2026-05-07 15:16 | -28.43378 | 25.37667 | 40123 ft | 436 kts | 231° |
| 2026-05-07 15:16 | -28.47654 | 25.32762 | 40142 ft | 436 kts | 231° |
| 2026-05-07 15:17 | -28.51900 | 25.27881 | 40125 ft | 436 kts | 231° |
| 2026-05-07 15:17 | -28.56169 | 25.22973 | 40123 ft | 436 kts | 231° |
| 2026-05-07 15:18 | -28.60435 | 25.18064 | 40124 ft | 436 kts | 231° |
| 2026-05-07 15:18 | -28.64710 | 25.13155 | 40124 ft | 436 kts | 231° |
| 2026-05-07 15:19 | -28.68979 | 25.08241 | 40127 ft | 436 kts | 231° |
| 2026-05-07 15:19 | -28.73213 | 25.03356 | 40123 ft | 436 kts | 231° |
| 2026-05-07 15:20 | -28.77477 | 24.98427 | 40126 ft | 435 kts | 231° |
| 2026-05-07 15:20 | -28.81730 | 24.93504 | 40122 ft | 435 kts | 231° |
| 2026-05-07 15:21 | -28.85984 | 24.88575 | 40125 ft | 435 kts | 231° |
| 2026-05-07 15:21 | -28.90235 | 24.83642 | 40125 ft | 436 kts | 231° |
| 2026-05-07 15:22 | -28.94456 | 24.78739 | 40125 ft | 435 kts | 231° |
| 2026-05-07 15:22 | -28.98700 | 24.73801 | 40125 ft | 435 kts | 231° |
| 2026-05-07 15:23 | -29.02946 | 24.68856 | 40128 ft | 435 kts | 231° |
| 2026-05-07 15:23 | -29.07185 | 24.63913 | 40128 ft | 435 kts | 231° |
| 2026-05-07 15:24 | -29.11426 | 24.58960 | 40129 ft | 435 kts | 231° |
| 2026-05-07 15:24 | -29.15634 | 24.54041 | 40128 ft | 435 kts | 231° |
| 2026-05-07 15:25 | -29.19878 | 24.49070 | 40131 ft | 437 kts | 231° |
| 2026-05-07 15:25 | -29.24131 | 24.44086 | 40128 ft | 437 kts | 231° |
| 2026-05-07 15:26 | -29.28385 | 24.39095 | 40125 ft | 437 kts | 231° |
| 2026-05-07 15:26 | -29.32594 | 24.34146 | 40130 ft | 436 kts | 231° |
| 2026-05-07 15:27 | -29.36829 | 24.29166 | 40127 ft | 436 kts | 231° |
| 2026-05-07 15:27 | -29.41057 | 24.24185 | 40128 ft | 435 kts | 231° |
| 2026-05-07 15:28 | -29.45285 | 24.19199 | 40127 ft | 435 kts | 231° |
| 2026-05-07 15:28 | -29.49479 | 24.14246 | 40127 ft | 435 kts | 231° |
| 2026-05-07 15:29 | -29.53704 | 24.09249 | 40133 ft | 436 kts | 231° |
| 2026-05-07 15:29 | -29.57933 | 24.04240 | 40132 ft | 435 kts | 231° |
| 2026-05-07 15:30 | -29.62155 | 23.99236 | 40126 ft | 435 kts | 231° |
| 2026-05-07 15:30 | -29.66335 | 23.94274 | 40125 ft | 435 kts | 231° |
| 2026-05-07 15:31 | -29.70543 | 23.89273 | 40123 ft | 435 kts | 231° |
| 2026-05-07 15:31 | -29.74747 | 23.84269 | 40122 ft | 435 kts | 231° |
| 2026-05-07 15:32 | -29.78952 | 23.79259 | 40122 ft | 434 kts | 231° |
| 2026-05-07 15:32 | -29.83150 | 23.74250 | 40134 ft | 434 kts | 231° |
| 2026-05-07 15:33 | -29.87314 | 23.69271 | 40132 ft | 434 kts | 230° |
| 2026-05-07 15:33 | -29.91510 | 23.64253 | 40122 ft | 434 kts | 231° |
| 2026-05-07 15:34 | -29.95701 | 23.59234 | 40121 ft | 434 kts | 231° |
| 2026-05-07 15:34 | -29.99893 | 23.54207 | 40117 ft | 434 kts | 231° |
| 2026-05-07 15:35 | -30.04053 | 23.49212 | 40117 ft | 434 kts | 231° |
| 2026-05-07 15:35 | -30.08240 | 23.44176 | 40117 ft | 434 kts | 231° |
| 2026-05-07 15:36 | -30.12416 | 23.39145 | 40115 ft | 432 kts | 231° |
| 2026-05-07 15:36 | -30.16579 | 23.34126 | 40115 ft | 432 kts | 231° |
| 2026-05-07 15:37 | -30.20705 | 23.29144 | 40113 ft | 431 kts | 230° |
| 2026-05-07 15:37 | -30.24858 | 23.24125 | 40109 ft | 431 kts | 230° |
| 2026-05-07 15:38 | -30.29029 | 23.19077 | 40110 ft | 431 kts | 230° |
| 2026-05-07 15:38 | -30.33207 | 23.14015 | 40121 ft | 431 kts | 230° |
| 2026-05-07 15:39 | -30.37344 | 23.08993 | 40122 ft | 430 kts | 230° |
| 2026-05-07 15:39 | -30.41440 | 23.04014 | 40110 ft | 429 kts | 230° |
| 2026-05-07 15:40 | -30.45553 | 22.99011 | 40113 ft | 429 kts | 230° |
| 2026-05-07 15:40 | -30.49668 | 22.93997 | 40107 ft | 429 kts | 230° |
| 2026-05-07 15:41 | -30.53782 | 22.88976 | 40123 ft | 429 kts | 230° |
| 2026-05-07 15:41 | -30.57873 | 22.83979 | 40113 ft | 430 kts | 230° |
| 2026-05-07 15:42 | -30.61994 | 22.78939 | 40110 ft | 430 kts | 230° |
| 2026-05-07 15:42 | -30.66105 | 22.73902 | 40111 ft | 429 kts | 230° |
| 2026-05-07 15:43 | -30.70206 | 22.68871 | 40112 ft | 428 kts | 231° |
| 2026-05-07 15:43 | -30.74275 | 22.63871 | 40111 ft | 428 kts | 231° |
| 2026-05-07 15:44 | -30.78372 | 22.58831 | 40112 ft | 428 kts | 231° |
| 2026-05-07 15:44 | -30.82463 | 22.53789 | 40111 ft | 428 kts | 231° |
| 2026-05-07 15:45 | -30.86553 | 22.48738 | 40131 ft | 429 kts | 231° |
| 2026-05-07 15:45 | -30.90649 | 22.43680 | 40123 ft | 429 kts | 231° |
| 2026-05-07 15:46 | -30.96749 | 22.36130 | 40122 ft | 428 kts | 231° |
| 2026-05-07 15:47 | -31.00841 | 22.31047 | 40120 ft | 428 kts | 231° |
| 2026-05-07 15:47 | -31.04918 | 22.25973 | 40122 ft | 428 kts | 231° |
| 2026-05-07 15:48 | -31.08989 | 22.20899 | 40128 ft | 428 kts | 231° |
| 2026-05-07 15:48 | -31.13030 | 22.15855 | 40127 ft | 428 kts | 231° |
| 2026-05-07 15:49 | -31.17093 | 22.10774 | 40130 ft | 428 kts | 231° |
| 2026-05-07 15:49 | -31.21156 | 22.05686 | 40131 ft | 428 kts | 231° |
| 2026-05-07 15:50 | -31.25224 | 22.00587 | 40128 ft | 429 kts | 231° |
| 2026-05-07 15:50 | -31.29283 | 21.95492 | 40126 ft | 429 kts | 231° |
| 2026-05-07 15:51 | -31.31520 | 21.92682 | 40130 ft | 429 kts | 231° |
| 2026-05-07 15:51 | -31.32980 | 21.90846 | 40131 ft | 429 kts | 231° |
| 2026-05-07 15:52 | -31.37074 | 21.85694 | 40126 ft | 429 kts | 231° |
| 2026-05-07 15:52 | -31.41134 | 21.80578 | 40127 ft | 429 kts | 231° |
| 2026-05-07 15:53 | -31.44687 | 21.76093 | 40131 ft | 428 kts | 231° |
| 2026-05-07 15:54 | -31.46856 | 21.73354 | 40132 ft | 428 kts | 231° |
| 2026-05-07 15:55 | -31.50904 | 21.68236 | 40130 ft | 428 kts | 231° |
| 2026-05-07 15:55 | -31.54921 | 21.63147 | 40144 ft | 428 kts | 231° |
| 2026-05-07 15:56 | -31.58460 | 21.58661 | 40135 ft | 429 kts | 231° |
| 2026-05-07 15:56 | -31.61661 | 21.54599 | 40135 ft | 429 kts | 231° |
| 2026-05-07 15:57 | -31.65711 | 21.49453 | 40134 ft | 429 kts | 231° |
| 2026-05-07 15:57 | -31.67471 | 21.47215 | 40132 ft | 429 kts | 231° |
| 2026-05-07 15:58 | -31.70275 | 21.43646 | 40134 ft | 429 kts | 231° |
| 2026-05-07 15:58 | -31.74322 | 21.38487 | 40140 ft | 429 kts | 231° |
| 2026-05-07 15:59 | -31.78361 | 21.33332 | 40139 ft | 429 kts | 231° |
| 2026-05-07 15:59 | -31.82422 | 21.28142 | 40139 ft | 429 kts | 231° |
| 2026-05-07 16:00 | -31.86434 | 21.23007 | 40160 ft | 429 kts | 231° |
| 2026-05-07 16:00 | -31.90470 | 21.17831 | 40148 ft | 429 kts | 231° |
| 2026-05-07 16:01 | -31.94512 | 21.12645 | 40141 ft | 429 kts | 231° |
| 2026-05-07 16:01 | -31.98547 | 21.07460 | 40138 ft | 429 kts | 231° |
| 2026-05-07 16:02 | -32.02579 | 21.02271 | 40139 ft | 429 kts | 231° |
| 2026-05-07 16:02 | -32.06574 | 20.97122 | 40141 ft | 429 kts | 231° |
| 2026-05-07 16:03 | -32.10601 | 20.91925 | 40141 ft | 429 kts | 231° |
| 2026-05-07 16:03 | -32.14625 | 20.86723 | 40150 ft | 429 kts | 231° |
| 2026-05-07 16:04 | -32.18647 | 20.81518 | 40148 ft | 429 kts | 231° |
| 2026-05-07 16:04 | -32.22639 | 20.76343 | 40149 ft | 429 kts | 231° |
| 2026-05-07 16:05 | -32.26661 | 20.71123 | 40157 ft | 429 kts | 231° |
| 2026-05-07 16:05 | -32.30675 | 20.65905 | 40158 ft | 429 kts | 231° |
| 2026-05-07 16:06 | -32.34701 | 20.60665 | 40155 ft | 429 kts | 231° |
| 2026-05-07 16:06 | -32.38713 | 20.55435 | 40166 ft | 429 kts | 231° |
| 2026-05-07 16:07 | -32.42692 | 20.50240 | 40162 ft | 429 kts | 231° |
| 2026-05-07 16:07 | -32.46701 | 20.45001 | 40157 ft | 429 kts | 231° |
| 2026-05-07 16:08 | -32.50705 | 20.39758 | 40155 ft | 429 kts | 231° |
| 2026-05-07 16:08 | -32.54708 | 20.34506 | 40162 ft | 430 kts | 231° |
| 2026-05-07 16:09 | -32.58720 | 20.29239 | 40148 ft | 430 kts | 231° |
| 2026-05-07 16:09 | -32.62702 | 20.24004 | 40147 ft | 430 kts | 231° |
| 2026-05-07 16:10 | -32.66712 | 20.18724 | 40140 ft | 430 kts | 231° |
| 2026-05-07 16:10 | -32.70717 | 20.13442 | 40143 ft | 430 kts | 231° |
| 2026-05-07 16:11 | -32.74035 | 20.09059 | 40144 ft | 429 kts | 231° |
| 2026-05-07 16:11 | -32.78679 | 20.02917 | 40141 ft | 429 kts | 231° |
| 2026-05-07 16:12 | -32.82669 | 19.97631 | 40141 ft | 429 kts | 231° |
| 2026-05-07 16:12 | -32.85987 | 19.93226 | 40150 ft | 430 kts | 231° |
| 2026-05-07 16:13 | -32.89976 | 19.87927 | 40143 ft | 430 kts | 231° |
| 2026-05-07 16:13 | -32.93972 | 19.82609 | 40148 ft | 430 kts | 231° |
| 2026-05-07 16:13 | -32.96618 | 19.79080 | 39767 ft | 433 kts | 231° |
| 2026-05-07 16:14 | -32.98626 | 19.76395 | 39269 ft | 433 kts | 231° |
| 2026-05-07 16:14 | -33.00628 | 19.73716 | 38763 ft | 433 kts | 231° |
| 2026-05-07 16:14 | -33.01996 | 19.71920 | 38339 ft | 433 kts | 230° |
| 2026-05-07 16:14 | -33.04067 | 19.69378 | 37783 ft | 432 kts | 229° |
| 2026-05-07 16:15 | -33.06176 | 19.66833 | 37278 ft | 430 kts | 228° |
| 2026-05-07 16:15 | -33.08273 | 19.64307 | 36794 ft | 427 kts | 228° |
| 2026-05-07 16:15 | -33.10360 | 19.61791 | 36251 ft | 426 kts | 228° |
| 2026-05-07 16:15 | -33.12447 | 19.59272 | 35649 ft | 426 kts | 228° |
| 2026-05-07 16:16 | -33.14534 | 19.56754 | 35065 ft | 427 kts | 228° |
| 2026-05-07 16:16 | -33.16621 | 19.54234 | 34470 ft | 427 kts | 228° |
| 2026-05-07 16:16 | -33.18720 | 19.51699 | 33708 ft | 431 kts | 228° |
| 2026-05-07 16:16 | -33.20833 | 19.49144 | 32868 ft | 434 kts | 227° |
| 2026-05-07 16:17 | -33.22930 | 19.46601 | 32147 ft | 436 kts | 228° |
| 2026-05-07 16:17 | -33.25014 | 19.43899 | 31412 ft | 436 kts | 231° |
| 2026-05-07 16:17 | -33.26933 | 19.41153 | 30747 ft | 436 kts | 233° |
| 2026-05-07 16:17 | -33.28801 | 19.38291 | 30075 ft | 435 kts | 233° |
| 2026-05-07 16:18 | -33.30644 | 19.35443 | 29602 ft | 429 kts | 233° |
| 2026-05-07 16:18 | -33.32460 | 19.32632 | 29054 ft | 426 kts | 233° |
| 2026-05-07 16:18 | -33.34261 | 19.29837 | 28583 ft | 421 kts | 233° |
| 2026-05-07 16:18 | -33.36035 | 19.27080 | 28138 ft | 416 kts | 233° |
| 2026-05-07 16:19 | -33.37790 | 19.24350 | 27695 ft | 411 kts | 233° |
| 2026-05-07 16:19 | -33.39559 | 19.21674 | 27262 ft | 407 kts | 231° |
| 2026-05-07 16:19 | -33.41400 | 19.19183 | 26851 ft | 403 kts | 228° |
| 2026-05-07 16:19 | -33.43366 | 19.16811 | 26435 ft | 400 kts | 225° |
| 2026-05-07 16:20 | -33.45383 | 19.14427 | 26026 ft | 404 kts | 230° |
| 2026-05-07 16:20 | -33.46892 | 19.11679 | 25655 ft | 398 kts | 245° |
| 2026-05-07 16:20 | -33.47853 | 19.08604 | 25454 ft | 388 kts | 252° |
| 2026-05-07 16:20 | -33.48620 | 19.05537 | 25278 ft | 377 kts | 253° |
| 2026-05-07 16:21 | -33.49331 | 19.02548 | 25060 ft | 368 kts | 253° |
| 2026-05-07 16:21 | -33.50019 | 18.99616 | 24728 ft | 364 kts | 253° |
| 2026-05-07 16:21 | -33.50698 | 18.96704 | 24323 ft | 361 kts | 253° |
| 2026-05-07 16:21 | -33.51370 | 18.93812 | 23925 ft | 358 kts | 253° |
| 2026-05-07 16:22 | -33.52035 | 18.90939 | 23305 ft | 358 kts | 253° |
| 2026-05-07 16:22 | -33.52697 | 18.88065 | 22594 ft | 356 kts | 253° |
| 2026-05-07 16:22 | -33.53352 | 18.85205 | 21876 ft | 355 kts | 253° |
| 2026-05-07 16:22 | -33.54001 | 18.82353 | 21174 ft | 353 kts | 253° |
| 2026-05-07 16:23 | -33.54632 | 18.79551 | 20502 ft | 352 kts | 253° |
| 2026-05-07 16:23 | -33.55264 | 18.76719 | 19828 ft | 350 kts | 253° |
| 2026-05-07 16:23 | -33.55904 | 18.73852 | 19182 ft | 366 kts | 254° |
| 2026-05-07 16:23 | -33.56575 | 18.70846 | 18599 ft | 375 kts | 254° |
| 2026-05-07 16:24 | -33.57248 | 18.67810 | 17885 ft | 378 kts | 254° |
| 2026-05-07 16:24 | -33.57918 | 18.64776 | 17007 ft | 372 kts | 254° |
| 2026-05-07 16:24 | -33.58569 | 18.61820 | 16324 ft | 360 kts | 253° |
| 2026-05-07 16:24 | -33.59195 | 18.58960 | 15642 ft | 349 kts | 253° |
| 2026-05-07 16:25 | -33.59801 | 18.56178 | 14980 ft | 340 kts | 253° |
| 2026-05-07 16:25 | -33.60384 | 18.53496 | 14338 ft | 332 kts | 253° |
| 2026-05-07 16:25 | -33.60960 | 18.50834 | 13657 ft | 326 kts | 253° |
| 2026-05-07 16:25 | -33.61521 | 18.48233 | 12948 ft | 320 kts | 253° |
| 2026-05-07 16:26 | -33.62071 | 18.45668 | 12252 ft | 314 kts | 253° |
| 2026-05-07 16:26 | -33.62609 | 18.43143 | 11585 ft | 310 kts | 253° |
| 2026-05-07 16:26 | -33.63124 | 18.40645 | 10911 ft | 306 kts | 253° |
| 2026-05-07 16:26 | -33.63861 | 18.38290 | 10234 ft | 298 kts | 233° |
| 2026-05-07 16:27 | -33.65295 | 18.36560 | 9476 ft | 292 kts | 209° |
| 2026-05-07 16:27 | -33.67177 | 18.35711 | 8302 ft | 298 kts | 185° |
| 2026-05-07 16:27 | -33.69258 | 18.35860 | 7163 ft | 305 kts | 168° |
| 2026-05-07 16:27 | -33.71334 | 18.36451 | 6201 ft | 306 kts | 164° |
| 2026-05-07 16:28 | -33.73345 | 18.37205 | 5449 ft | 299 kts | 152° |
| 2026-05-07 16:28 | -33.74921 | 18.38728 | 4909 ft | 287 kts | 127° |
| 2026-05-07 16:28 | -33.75898 | 18.40777 | 4203 ft | 283 kts | 116° |
| 2026-05-07 16:28 | -33.76705 | 18.42921 | 3515 ft | 279 kts | 117° |
| 2026-05-07 16:29 | -33.77580 | 18.44956 | 3080 ft | 267 kts | 118° |
| 2026-05-07 16:29 | -33.78423 | 18.46851 | 2972 ft | 244 kts | 118° |
| 2026-05-07 16:29 | -33.79176 | 18.48539 | 2970 ft | 220 kts | 119° |
| 2026-05-07 16:29 | -33.79879 | 18.50113 | 3022 ft | 208 kts | 119° |
| 2026-05-07 16:30 | -33.80562 | 18.51627 | 3002 ft | 205 kts | 120° |
| 2026-05-07 16:30 | -33.81248 | 18.53128 | 2997 ft | 205 kts | 120° |
| 2026-05-07 16:30 | -33.81923 | 18.54589 | 3016 ft | 192 kts | 120° |
| 2026-05-07 16:30 | -33.82800 | 18.55659 | 3005 ft | 174 kts | 149° |
| 2026-05-07 16:31 | -33.83908 | 18.56202 | 2790 ft | 171 kts | 160° |
| 2026-05-07 16:31 | -33.85054 | 18.56571 | 2534 ft | 169 kts | 163° |
| 2026-05-07 16:31 | -33.86160 | 18.56895 | 2297 ft | 162 kts | 163° |
| 2026-05-07 16:31 | -33.87223 | 18.57219 | 2039 ft | 153 kts | 162° |
| 2026-05-07 16:32 | -33.88216 | 18.57529 | 1806 ft | 142 kts | 162° |
| 2026-05-07 16:32 | -33.89153 | 18.57826 | 1613 ft | 139 kts | 162° |
| 2026-05-07 16:32 | -33.90092 | 18.58127 | 1440 ft | 139 kts | 163° |
| 2026-05-07 16:32 | -33.91023 | 18.58422 | 1251 ft | 138 kts | 164° |
| 2026-05-07 16:33 | -33.91947 | 18.58713 | 1067 ft | 137 kts | 163° |
| 2026-05-07 16:33 | -33.92866 | 18.59009 | 847 ft | 137 kts | 164° |
| 2026-05-07 16:33 | -33.93783 | 18.59303 | 683 ft | 139 kts | 165° |
| 2026-05-07 16:33 | -33.94707 | 18.59611 | 466 ft | 137 kts | 167° |
| 2026-05-07 16:34 | -33.95623 | 18.59896 | 284 ft | 136 kts | 167° |
| 2026-05-07 16:34 | -33.96523 | 18.60178 | 166 ft | 121 kts | 165° |
| 2026-05-07 16:34 | -33.97144 | 18.60383 | 163 ft | 65 kts | 166° |
| 2026-05-07 16:34 | -33.97444 | 18.60472 | 161 ft | 27 kts | 166° |
| 2026-05-07 16:35 | -33.97626 | 18.60528 | 161 ft | 23 kts | 167° |
| 2026-05-07 16:35 | -33.97688 | 18.60546 | 162 ft | 2 kts | 166° |
| 2026-05-07 16:35 | -33.97713 | 18.60554 | 162 ft | 5 kts | 166° |
| 2026-05-07 16:35 | -33.97755 | 18.60564 | 163 ft | 7 kts | 182° |
| 2026-05-07 16:36 | -33.97786 | 18.60518 | 162 ft | 10 kts | 267° |
| 2026-05-07 16:36 | -33.97770 | 18.60424 | 162 ft | 13 kts | 284° |
| 2026-05-07 16:36 | -33.97744 | 18.60311 | 162 ft | 8 kts | 285° |
| 2026-05-07 16:36 | -33.97727 | 18.60231 | 162 ft | 12 kts | 283° |
| 2026-05-07 16:37 | -33.97712 | 18.60198 | 162 ft | 5 kts | 320° |
| 2026-05-07 16:37 | -33.97670 | 18.60173 | 162 ft | 9 kts | 339° |
| 2026-05-07 16:37 | -33.97598 | 18.60141 | 162 ft | 13 kts | 339° |
| 2026-05-07 16:37 | -33.97505 | 18.60091 | 162 ft | 17 kts | 335° |
| 2026-05-07 16:38 | -33.97442 | 18.60064 | 162 ft | 10 kts | 345° |
| 2026-05-07 16:38 | -33.97361 | 18.60038 | 163 ft | 14 kts | 345° |
| 2026-05-07 16:38 | -33.97319 | 18.60024 | 163 ft | 10 kts | 345° |
| 2026-05-07 16:38 | -33.97240 | 18.59999 | 163 ft | 12 kts | 346° |
| 2026-05-07 16:39 | -33.97171 | 18.59978 | 163 ft | 0 kts | 346° |
| 2026-05-07 16:39 | -33.97170 | 18.59977 | 163 ft | 1 kts | 346° |
| 2026-05-07 16:39 | -33.97150 | 18.59971 | 163 ft | 5 kts | 346° |
| 2026-05-07 16:39 | -33.97103 | 18.59962 | 163 ft | 9 kts | 351° |
| 2026-05-07 16:40 | -33.97065 | 18.59953 | 163 ft | 1 kts | 347° |
| 2026-05-07 16:40 | -33.97048 | 18.59948 | 163 ft | 4 kts | 346° |
| 2026-05-07 16:40 | -33.97021 | 18.59940 | 163 ft | 7 kts | 345° |
| 2026-05-07 16:40 | -33.96939 | 18.59912 | 163 ft | 6 kts | 345° |
| 2026-05-07 16:41 | -33.96891 | 18.59897 | 163 ft | 8 kts | 345° |
| 2026-05-07 16:41 | -33.96860 | 18.59887 | 163 ft | 1 kts | 345° |
| 2026-05-07 16:41 | -33.96849 | 18.59884 | 163 ft | 4 kts | 345° |
| 2026-05-07 16:41 | -33.96824 | 18.59850 | 163 ft | 0 kts | 273° |
| 2026-05-07 16:42 | -33.96824 | 18.59843 | 163 ft | 2 kts | 267° |
| 2026-05-07 16:42 | -33.96827 | 18.59819 | 163 ft | 3 kts | 259° |
| 2026-05-07 16:42 | -33.96833 | 18.59790 | 163 ft | 2 kts | 258° |
| 2026-05-07 16:42 | -33.96833 | 18.59787 | 163 ft | 0 kts | 256° |
| 2026-05-07 16:43 | -33.96834 | 18.59786 | 163 ft | 0 kts | 255° |